Ahoskie, NC

1:03 AM EDT on September 24, 2014 (GMT -0400)
Tri County | Change Station
CLOSE
Current Station
Airport
Location: Ahoskie,
Elevation: 69 ft
Nearby Weather Stations

Elev 69 ft 36.30 °N, 77.17 °W | Updated 28 minutes ago

Overcast
Overcast
57 °F
Feels Like 57 °F
N
6
Wind Variable Wind from North

Today
High -- | Low -- °F
--% Chance of Precip.
Yesterday
High -- | Low -- °F
Precip. -- in
6:57 AM 7:01 PM
Waning Crescent, 0% visible
Pressure 30.30 in
Visibility 10.0 miles
Clouds Scattered Clouds 7500 ft
Scattered Clouds 8500 ft
Mostly Cloudy 12000 ft
Dew Point 51 °F
Humidity 81%
Rainfall 0.00 in
Snow Depth Not available.
UV 0 out of 12
Pollen 4.70 out of 12
Air Quality Not available.
Flu Activity Not available.
METAR KASJ 240435Z AUTO 36005KT 10SM SCT075 SCT085 BKN120 14/11 A3030 RMK AO2 T01380106

More Conditions Fewer Conditions

Pressure 30.30 in
Visibility 10.0 miles
Clouds Scattered Clouds 7500 ft
Scattered Clouds 8500 ft
Mostly Cloudy 12000 ft
Dew Point 51 °F
Humidity 81%
Rainfall 0.00 in
Snow Depth Not available.
UV 0 out of 12
Pollen 4.70 out of 12
Air Quality Not available.
Flu Activity Not available.
METAR KASJ 240435Z AUTO 36005KT 10SM SCT075 SCT085 BKN120 14/11 A3030 RMK AO2 T01380106

More Conditions Fewer Conditions

10-Day Weather Forecast

Almanac

Astronomy

Sep. 24, 2014 Rise Set
Actual Time 6:57 AM EDT 7:01 PM EDT
Civil Twilight 6:31 AM EDT 7:27 PM EDT
Nautical Twilight 6:01 AM EDT 7:57 PM EDT
Astronomical Twilight 5:31 AM EDT 8:27 PM EDT
Moon 7:14 AM EDT 7:13 PM EDT
Length of Visible Light 12h 55m
Length of Day
12h 04m
Tomorrow will be 2m 18s shorter.
Waning Crescent, 0% of the Moon is Illuminated
Today
Waning Crescent
Sep 24
New
Oct 1
First Quarter
Oct 8
Full
Oct 15
Last Quarter

Today's Extremes

State Highs State Lows

Community

WunderPhotos

Upload Photos

1,755,891 photos uploaded!

WunderBlogs® & News

Nearby

Snow Depth

Station Depth Elevation
No new snow has been reported.

Earthquake Activity

City Distance Mag. Time & Date
No recent earthquake activity has been reported nearby.
Minimum magnitude displayed is 2.5.

Coastal Water Temperatures

Place Temperature
Oregon Inlet Marina, NC 71.1 °F
Duck Pier, NC 73.0 °F
Hatteras, NC 73.9 °F
Money Point, VA 75.9 °F
Sewells Point, VA 73.9 °F
Chesapeake Bay Bridge Tunnel, VA 73.0 °F

Nearby Weather Stations